createdAt,value
2022-09-01T00:02:56.334Z,10.87
2022-09-01T00:08:19.902Z,10.86
2022-09-01T00:13:42.328Z,10.80
2022-09-01T00:19:07.240Z,10.81
2022-09-01T00:24:31.879Z,10.69
2022-09-01T00:29:54.887Z,10.57
2022-09-01T00:35:17.246Z,10.36
2022-09-01T00:40:40.114Z,10.16
2022-09-01T00:46:02.510Z,9.95
2022-09-01T00:51:32.377Z,9.71
2022-09-01T00:56:58.189Z,9.60
2022-09-01T01:02:20.663Z,9.46
2022-09-01T01:07:43.487Z,9.24
2022-09-01T01:13:09.177Z,9.13
2022-09-01T01:18:32.163Z,8.94
2022-09-01T01:24:07.226Z,8.77
2022-09-01T01:29:30.132Z,8.74
2022-09-01T01:34:54.259Z,8.60
2022-09-01T01:40:17.228Z,8.59
2022-09-01T01:45:41.873Z,8.46
2022-09-01T01:51:06.049Z,8.41
2022-09-01T01:56:29.957Z,8.27
2022-09-01T02:01:53.013Z,8.20
2022-09-01T02:07:17.076Z,8.17
2022-09-01T02:12:41.253Z,8.05
2022-09-01T02:18:05.070Z,8.01
2022-09-01T02:23:30.771Z,7.87
2022-09-01T02:28:56.411Z,7.84
2022-09-01T02:34:19.976Z,7.82
2022-09-01T02:39:44.692Z,7.82
2022-09-01T02:45:09.952Z,7.81
2022-09-01T02:50:33.582Z,7.68
2022-09-01T02:55:58.958Z,7.61
2022-09-01T03:01:27.644Z,7.60
2022-09-01T03:06:52.597Z,7.53
2022-09-01T03:12:14.851Z,7.90
2022-09-01T03:17:37.538Z,8.28
2022-09-01T03:23:00.905Z,8.71
2022-09-01T03:28:24.657Z,8.87
2022-09-01T03:33:47.028Z,8.97
2022-09-01T03:39:16.402Z,9.11
2022-09-01T03:44:36.380Z,9.21
2022-09-01T03:50:00.175Z,9.30
2022-09-01T03:55:27.565Z,9.46
2022-09-01T04:00:54.437Z,9.51
2022-09-01T04:06:21.132Z,9.55
2022-09-01T04:11:46.401Z,9.59
2022-09-01T04:17:30.437Z,9.56
2022-09-01T04:22:51.501Z,9.61
2022-09-01T04:28:15.811Z,9.61
2022-09-01T04:33:40.391Z,9.65
2022-09-01T04:39:06.651Z,9.73
2022-09-01T04:44:31.636Z,9.84
2022-09-01T04:49:53.806Z,9.86
2022-09-01T04:55:20.352Z,9.87
2022-09-01T05:00:45.489Z,9.88
2022-09-01T05:06:09.037Z,9.94
2022-09-01T05:11:33.316Z,9.97
2022-09-01T05:16:56.868Z,10.12
2022-09-01T05:22:22.521Z,10.31
2022-09-01T05:27:49.952Z,10.46
2022-09-01T05:33:22.391Z,10.84
2022-09-01T05:38:44.607Z,10.98
2022-09-01T05:44:09.501Z,11.12
2022-09-01T05:49:33.846Z,11.33
2022-09-01T05:54:57.680Z,11.44
2022-09-01T06:00:23.082Z,11.68
2022-09-01T06:05:48.703Z,11.88
2022-09-01T06:11:13.231Z,12.32
2022-09-01T06:16:38.374Z,12.62
2022-09-01T06:22:02.476Z,12.98
2022-09-01T06:27:27.517Z,13.15
2022-09-01T06:32:50.014Z,13.33
2022-09-01T06:38:13.240Z,13.56
2022-09-01T06:43:37.035Z,14.00
2022-09-01T06:49:00.034Z,14.28
2022-09-01T06:54:23.531Z,14.64
2022-09-01T06:59:49.085Z,14.92
2022-09-01T07:11:19.576Z,15.15
2022-09-01T07:21:39.403Z,15.06
2022-09-01T07:27:07.853Z,15.14
2022-09-01T07:50:24.236Z,16.41
2022-09-01T07:55:19.947Z,16.57
2022-09-01T08:00:46.842Z,16.50
2022-09-01T08:06:12.771Z,16.69
2022-09-01T08:12:01.147Z,16.66
2022-09-01T08:22:30.801Z,16.28
2022-09-01T08:28:00.640Z,16.76
2022-09-01T08:33:22.105Z,17.12
2022-09-01T08:38:45.721Z,16.74
2022-09-01T08:45:03.780Z,16.77
2022-09-01T08:50:27.405Z,16.71
2022-09-01T08:56:00.776Z,17.29
2022-09-01T09:01:37.125Z,17.52
2022-09-01T09:07:13.682Z,17.67
2022-09-01T09:13:00.593Z,17.60
2022-09-01T09:18:39.765Z,17.86
2022-09-01T09:24:07.770Z,17.80
2022-09-01T09:29:30.050Z,17.46
2022-09-01T09:34:54.968Z,17.53
2022-09-01T09:41:06.649Z,17.55
2022-09-01T09:46:24.790Z,17.83
2022-09-01T09:51:45.051Z,17.67
2022-09-01T09:57:25.729Z,18.28
2022-09-01T10:02:55.898Z,18.28
2022-09-01T10:08:22.006Z,18.45
2022-09-01T10:13:46.446Z,18.60
2022-09-01T10:19:12.685Z,18.37
2022-09-01T10:24:49.747Z,19.24
2022-09-01T10:30:20.802Z,18.67
2022-09-01T10:35:53.019Z,18.37
2022-09-01T10:41:18.159Z,18.73
2022-09-01T10:46:51.011Z,18.26
2022-09-01T10:52:28.462Z,17.89
2022-09-01T10:58:08.476Z,18.00
2022-09-01T11:03:47.845Z,18.77
2022-09-01T11:09:11.773Z,18.53
2022-09-01T11:14:39.212Z,18.74
2022-09-01T11:20:18.134Z,18.97
2022-09-01T11:31:34.604Z,19.58
2022-09-01T11:37:01.603Z,19.03
2022-09-01T11:42:39.939Z,18.74
2022-09-01T11:48:07.702Z,18.33
2022-09-01T11:53:36.302Z,18.11
2022-09-01T11:58:58.956Z,18.93
2022-09-01T12:04:42.219Z,19.89
2022-09-01T12:10:07.555Z,20.96
2022-09-01T12:16:07.394Z,21.97
2022-09-01T12:21:15.850Z,21.45
2022-09-01T12:26:41.636Z,20.88
2022-09-01T12:32:06.457Z,21.10
2022-09-01T12:37:37.452Z,21.77
2022-09-01T12:43:04.826Z,21.41
2022-09-01T12:48:49.838Z,20.40
2022-09-01T12:54:14.225Z,19.21
2022-09-01T12:59:41.208Z,19.22
2022-09-01T13:05:06.760Z,19.85
2022-09-01T13:10:33.382Z,19.33
2022-09-01T13:16:02.744Z,19.47
2022-09-01T13:21:28.227Z,18.82
2022-09-01T13:32:18.538Z,18.62
2022-09-01T13:37:42.114Z,18.33
2022-09-01T13:43:06.422Z,18.15
2022-09-01T13:49:02.355Z,17.20
2022-09-01T13:53:54.569Z,16.47
2022-09-01T13:59:17.512Z,16.26
2022-09-01T14:04:40.455Z,16.15
2022-09-01T14:10:04.384Z,16.30
2022-09-01T14:15:29.726Z,16.28
2022-09-01T14:20:58.144Z,16.43
2022-09-01T14:26:27.221Z,16.83
2022-09-01T14:31:50.753Z,17.77
2022-09-01T14:37:13.354Z,17.96
2022-09-01T14:42:37.796Z,18.62
2022-09-01T14:48:03.068Z,18.87
2022-09-01T14:53:26.415Z,19.91
2022-09-01T14:58:48.917Z,19.45
2022-09-01T15:04:11.512Z,19.07
2022-09-01T15:09:34.572Z,18.74
2022-09-01T15:14:56.932Z,18.68
2022-09-01T15:20:38.207Z,20.90
2022-09-01T15:26:02.512Z,21.54
2022-09-01T15:31:28.494Z,20.18
2022-09-01T15:36:54.077Z,19.49
2022-09-01T15:42:17.594Z,18.79
2022-09-01T15:47:44.939Z,18.31
2022-09-01T15:53:16.161Z,17.66
2022-09-01T15:58:57.493Z,17.28
2022-09-01T16:04:02.793Z,17.20
2022-09-01T16:09:27.291Z,17.22
2022-09-01T16:14:51.208Z,17.11
2022-09-01T16:20:29.734Z,17.11
2022-09-01T16:25:54.462Z,17.08
2022-09-01T16:31:21.973Z,16.99
2022-09-01T16:37:11.107Z,16.95
2022-09-01T16:42:43.441Z,17.03
2022-09-01T16:48:25.618Z,16.96
2022-09-01T16:54:09.921Z,16.76
2022-09-01T16:59:59.066Z,16.71
2022-09-01T17:05:49.644Z,16.38
2022-09-01T17:11:19.587Z,16.11
2022-09-01T17:16:42.528Z,15.80
2022-09-01T17:22:09.654Z,15.62
2022-09-01T17:28:09.462Z,15.42
2022-09-01T17:33:42.596Z,14.89
2022-09-01T17:39:25.723Z,14.46
2022-09-01T17:44:56.709Z,14.19
2022-09-01T17:50:34.351Z,13.92
2022-09-01T17:56:10.398Z,13.83
2022-09-01T18:01:53.400Z,13.69
2022-09-01T18:07:53.661Z,13.57
2022-09-01T18:13:52.908Z,13.45
2022-09-01T18:19:10.796Z,13.32
2022-09-01T18:24:49.314Z,13.53
2022-09-01T18:30:14.882Z,13.72
2022-09-01T18:36:00.013Z,13.80
2022-09-01T18:41:56.485Z,13.88
2022-09-01T18:47:22.598Z,13.67
2022-09-01T18:53:23.900Z,13.31
2022-09-01T18:59:19.321Z,13.12
2022-09-01T19:04:47.557Z,12.99
2022-09-01T19:10:18.419Z,12.76
2022-09-01T19:16:06.938Z,12.61
2022-09-01T19:21:44.416Z,12.34
2022-09-01T19:27:17.102Z,12.20
2022-09-01T19:32:42.562Z,12.01
2022-09-01T19:38:05.449Z,11.75
2022-09-01T19:43:29.339Z,11.49
2022-09-01T19:49:08.529Z,11.27
2022-09-01T19:54:56.976Z,10.98
2022-09-01T20:00:37.204Z,10.83
2022-09-01T20:06:22.212Z,10.62
2022-09-01T20:11:58.163Z,10.51
2022-09-01T20:17:25.238Z,10.51
2022-09-01T20:23:19.255Z,10.47
2022-09-01T20:28:56.229Z,10.69
2022-09-01T20:34:46.081Z,10.63
2022-09-01T20:40:23.917Z,10.61
2022-09-01T20:45:47.943Z,10.51
2022-09-01T20:51:30.215Z,10.37
2022-09-01T20:57:17.896Z,10.39
2022-09-01T21:03:15.238Z,10.50
2022-09-01T21:08:51.679Z,10.48
2022-09-01T21:14:51.714Z,10.56
2022-09-01T21:20:40.292Z,10.60
2022-09-01T21:26:03.208Z,10.52
2022-09-01T21:31:26.068Z,10.34
2022-09-01T21:36:48.245Z,10.24
2022-09-01T21:42:12.507Z,10.09
2022-09-01T21:47:35.841Z,10.09
2022-09-01T21:52:58.469Z,10.06
2022-09-01T21:58:21.467Z,9.99
2022-09-01T22:03:43.650Z,10.02
2022-09-01T22:09:21.417Z,9.95
2022-09-01T22:14:33.383Z,9.83
2022-09-01T22:19:55.556Z,9.52
2022-09-01T22:25:21.554Z,9.22
2022-09-01T22:30:46.413Z,9.09
2022-09-01T22:36:10.108Z,9.07
2022-09-01T22:41:36.206Z,9.00
2022-09-01T22:46:59.220Z,8.98
2022-09-01T22:52:22.394Z,8.99
2022-09-01T22:57:45.313Z,8.96
2022-09-01T23:03:07.542Z,8.89
2022-09-01T23:08:30.249Z,8.85
2022-09-01T23:13:53.877Z,8.77
2022-09-01T23:19:17.118Z,8.65
2022-09-01T23:24:39.247Z,8.47
2022-09-01T23:30:01.947Z,8.34
2022-09-01T23:35:24.366Z,8.21
2022-09-01T23:40:47.568Z,8.14
2022-09-01T23:46:12.200Z,8.11
2022-09-01T23:51:37.267Z,8.00
2022-09-01T23:57:00.178Z,7.94
